createdAt,value
2019-03-19T00:01:41.348Z,1.86
2019-03-19T00:04:10.269Z,1.86
2019-03-19T00:06:38.947Z,1.82
2019-03-19T00:09:08.315Z,1.83
2019-03-19T00:11:36.977Z,1.81
2019-03-19T00:14:06.004Z,1.84
2019-03-19T00:16:34.995Z,1.79
2019-03-19T00:19:04.115Z,1.83
2019-03-19T00:21:32.861Z,1.81
2019-03-19T00:24:01.795Z,1.89
2019-03-19T00:26:30.823Z,1.92
2019-03-19T00:28:59.509Z,1.87
2019-03-19T00:31:28.459Z,1.85
2019-03-19T00:33:57.179Z,1.77
2019-03-19T00:36:25.875Z,1.77
2019-03-19T00:38:54.596Z,1.75
2019-03-19T00:41:23.369Z,1.74
2019-03-19T00:43:54.498Z,1.75
2019-03-19T00:46:23.463Z,1.79
2019-03-19T00:48:52.455Z,1.85
2019-03-19T00:51:22.019Z,1.87
2019-03-19T00:53:51.011Z,1.84
2019-03-19T00:56:20.416Z,1.82
2019-03-19T00:58:49.457Z,1.81
2019-03-19T01:01:18.714Z,1.87
2019-03-19T01:03:47.421Z,1.79
2019-03-19T01:06:16.401Z,1.77
2019-03-19T01:08:45.385Z,1.65
2019-03-19T01:11:14.543Z,1.71
2019-03-19T01:13:43.224Z,1.71
2019-03-19T01:16:12.250Z,1.63
2019-03-19T01:18:41.241Z,1.66
2019-03-19T01:21:10.293Z,1.68
2019-03-19T01:23:39.009Z,1.67
2019-03-19T01:26:07.702Z,1.66
2019-03-19T01:28:36.645Z,1.67
2019-03-19T01:31:05.439Z,1.65
2019-03-19T01:33:34.430Z,1.66
2019-03-19T01:36:03.385Z,1.67
2019-03-19T01:38:32.064Z,1.64
2019-03-19T01:41:00.749Z,1.66
2019-03-19T01:43:29.443Z,1.59
2019-03-19T01:45:58.575Z,1.58
2019-03-19T01:48:27.266Z,1.61
2019-03-19T01:50:56.251Z,1.53
2019-03-19T01:53:24.977Z,1.53
2019-03-19T01:56:04.432Z,1.45
2019-03-19T01:58:24.088Z,1.46
2019-03-19T02:00:53.042Z,1.43
2019-03-19T02:03:21.729Z,1.41
2019-03-19T02:05:51.025Z,1.42
2019-03-19T02:08:19.715Z,1.43
2019-03-19T02:10:48.401Z,1.43
2019-03-19T02:13:17.090Z,1.49
2019-03-19T02:15:45.827Z,1.45
2019-03-19T02:18:14.760Z,1.47
2019-03-19T02:20:43.449Z,1.42
2019-03-19T02:23:12.154Z,1.36
2019-03-19T02:25:40.852Z,1.37
2019-03-19T02:28:09.818Z,1.40
2019-03-19T02:30:38.827Z,1.35
2019-03-19T02:33:07.496Z,1.34
2019-03-19T02:35:36.162Z,1.36
2019-03-19T02:38:04.909Z,1.27
2019-03-19T02:40:33.628Z,1.34
2019-03-19T02:43:02.287Z,1.29
2019-03-19T02:45:30.962Z,1.33
2019-03-19T02:48:00.011Z,1.21
2019-03-19T02:50:29.114Z,1.20
2019-03-19T02:52:57.793Z,1.23
2019-03-19T02:55:27.086Z,1.21
2019-03-19T02:57:55.761Z,1.18
2019-03-19T03:00:24.466Z,1.23
2019-03-19T03:02:53.151Z,1.20
2019-03-19T03:05:22.353Z,1.23
2019-03-19T03:07:51.024Z,1.22
2019-03-19T03:10:19.690Z,1.26
2019-03-19T03:12:48.704Z,1.33
2019-03-19T03:15:17.776Z,1.28
2019-03-19T03:17:46.431Z,1.49
2019-03-19T03:20:15.326Z,1.53
2019-03-19T03:22:44.164Z,1.51
2019-03-19T03:25:13.039Z,1.38
2019-03-19T03:27:41.760Z,1.34
2019-03-19T03:30:11.755Z,1.29
2019-03-19T03:32:40.450Z,1.24
2019-03-19T03:35:10.074Z,1.20
2019-03-19T03:37:39.061Z,1.18
2019-03-19T03:40:09.335Z,1.14
2019-03-19T03:42:38.084Z,1.13
2019-03-19T03:45:07.408Z,1.18
2019-03-19T03:47:36.453Z,1.15
2019-03-19T03:50:05.710Z,1.28
2019-03-19T03:52:34.367Z,1.19
2019-03-19T03:55:03.756Z,1.18
2019-03-19T03:57:32.734Z,1.16
2019-03-19T04:00:01.956Z,1.14
2019-03-19T04:02:30.716Z,1.06
2019-03-19T04:04:59.402Z,1.07
2019-03-19T04:07:28.088Z,1.02
2019-03-19T04:09:57.274Z,0.98
2019-03-19T04:12:25.952Z,1.03
2019-03-19T04:14:54.637Z,0.98
2019-03-19T04:17:23.568Z,0.99
2019-03-19T04:19:53.025Z,1.04
2019-03-19T04:22:24.346Z,1.03
2019-03-19T04:24:53.597Z,1.05
2019-03-19T04:27:22.341Z,1.01
2019-03-19T04:29:51.020Z,1.05
2019-03-19T04:32:20.270Z,1.05
2019-03-19T04:34:48.939Z,1.02
2019-03-19T04:37:17.636Z,1.07
2019-03-19T04:39:49.397Z,1.05
2019-03-19T04:42:18.085Z,1.01
2019-03-19T04:44:46.772Z,0.93
2019-03-19T04:47:15.758Z,0.99
2019-03-19T04:49:44.455Z,0.94
2019-03-19T04:52:13.485Z,0.99
2019-03-19T04:54:42.423Z,1.01
2019-03-19T04:57:11.116Z,1.03
2019-03-19T04:59:39.793Z,1.06
2019-03-19T05:02:08.498Z,1.03
2019-03-19T05:04:37.810Z,0.71
2019-03-19T05:07:06.487Z,1.01
2019-03-19T05:09:36.016Z,1.03
2019-03-19T05:12:04.692Z,0.96
2019-03-19T05:14:33.370Z,1.00
2019-03-19T05:17:02.344Z,1.07
2019-03-19T05:19:31.031Z,1.04
2019-03-19T05:22:00.024Z,0.96
2019-03-19T05:24:28.824Z,1.00
2019-03-19T05:26:57.517Z,1.02
2019-03-19T05:29:26.479Z,0.95
2019-03-19T05:31:55.788Z,0.93
2019-03-19T05:34:24.460Z,0.91
2019-03-19T05:36:53.462Z,0.90
2019-03-19T05:39:22.663Z,0.92
2019-03-19T05:41:51.370Z,0.89
2019-03-19T05:44:20.352Z,0.92
2019-03-19T05:46:49.334Z,0.96
2019-03-19T05:49:18.632Z,0.94
2019-03-19T05:51:47.631Z,0.91
2019-03-19T05:54:16.312Z,0.93
2019-03-19T05:56:45.022Z,0.97
2019-03-19T05:59:14.296Z,0.96
2019-03-19T06:01:43.255Z,0.97
2019-03-19T06:04:11.953Z,1.00
2019-03-19T06:06:40.660Z,1.01
2019-03-19T06:09:09.564Z,1.06
2019-03-19T06:11:38.514Z,1.12
2019-03-19T06:14:07.432Z,1.12
2019-03-19T06:16:36.112Z,1.16
2019-03-19T06:19:04.797Z,1.19
2019-03-19T06:21:33.793Z,1.22
2019-03-19T06:24:02.462Z,1.28
2019-03-19T06:26:31.643Z,1.41
2019-03-19T06:29:00.331Z,1.42
2019-03-19T06:31:29.036Z,1.48
2019-03-19T06:33:57.947Z,1.55
2019-03-19T06:36:26.613Z,1.68
2019-03-19T06:38:55.627Z,1.56
2019-03-19T06:41:24.471Z,1.55
2019-03-19T06:43:53.498Z,1.58
2019-03-19T06:46:22.497Z,1.62
2019-03-19T06:48:51.497Z,1.58
2019-03-19T06:51:20.243Z,1.65
2019-03-19T06:53:49.044Z,1.70
2019-03-19T06:56:17.744Z,1.71
2019-03-19T06:58:46.422Z,1.78
2019-03-19T07:01:17.388Z,1.86
2019-03-19T07:03:46.166Z,1.82
2019-03-19T07:06:15.100Z,1.87
2019-03-19T07:08:43.789Z,1.83
2019-03-19T07:11:12.840Z,1.88
2019-03-19T07:13:41.844Z,1.88
2019-03-19T07:16:10.823Z,1.98
2019-03-19T07:18:41.920Z,1.94
2019-03-19T07:21:10.889Z,1.94
2019-03-19T07:23:41.670Z,2.13
2019-03-19T07:26:10.355Z,2.18
2019-03-19T07:28:39.049Z,2.18
2019-03-19T07:31:07.747Z,2.17
2019-03-19T07:33:36.675Z,2.14
2019-03-19T07:36:06.390Z,2.24
2019-03-19T07:38:35.456Z,2.27
2019-03-19T07:41:04.438Z,2.32
2019-03-19T07:43:33.150Z,2.33
2019-03-19T07:46:01.835Z,2.40
2019-03-19T07:48:30.517Z,2.42
2019-03-19T07:50:59.895Z,2.24
2019-03-19T07:53:28.841Z,2.30
2019-03-19T07:55:57.880Z,2.38
2019-03-19T07:58:35.848Z,2.44
2019-03-19T08:00:57.292Z,2.47
2019-03-19T08:03:26.322Z,2.48
2019-03-19T08:05:55.284Z,2.45
2019-03-19T08:08:23.977Z,2.46
2019-03-19T08:10:52.638Z,2.51
2019-03-19T08:13:21.430Z,2.63
2019-03-19T08:15:50.097Z,2.76
2019-03-19T08:18:19.081Z,2.70
2019-03-19T08:20:48.323Z,2.70
2019-03-19T08:23:17.019Z,2.83
2019-03-19T08:25:45.947Z,2.98
2019-03-19T08:28:14.634Z,3.05
2019-03-19T08:30:43.353Z,3.27
2019-03-19T08:33:13.386Z,3.27
2019-03-19T08:35:42.382Z,3.06
2019-03-19T08:38:11.340Z,2.92
2019-03-19T08:40:40.364Z,2.97
2019-03-19T08:43:09.040Z,3.07
2019-03-19T08:45:37.709Z,3.01
2019-03-19T08:48:06.727Z,3.12
2019-03-19T08:50:35.436Z,3.20
2019-03-19T08:53:04.916Z,3.33
2019-03-19T08:55:34.040Z,3.39
2019-03-19T08:58:02.725Z,3.38
2019-03-19T09:00:31.789Z,3.54
2019-03-19T09:03:00.735Z,3.62
2019-03-19T09:05:29.427Z,3.84
2019-03-19T09:07:58.351Z,3.86
2019-03-19T09:10:27.354Z,3.85
2019-03-19T09:12:56.332Z,3.92
2019-03-19T09:15:25.341Z,3.89
2019-03-19T09:17:54.264Z,3.64
2019-03-19T09:20:23.084Z,3.75
2019-03-19T09:22:52.057Z,3.76
2019-03-19T09:25:21.105Z,3.79
2019-03-19T09:27:49.850Z,3.74
2019-03-19T09:30:18.887Z,3.81
2019-03-19T09:32:47.664Z,3.79
2019-03-19T09:35:16.429Z,3.93
2019-03-19T09:37:57.190Z,4.13
2019-03-19T09:40:15.750Z,4.11
2019-03-19T09:42:44.877Z,3.89
2019-03-19T09:45:14.505Z,4.15
2019-03-19T09:47:43.288Z,4.42
2019-03-19T09:50:13.482Z,4.44
2019-03-19T09:52:42.588Z,4.64
2019-03-19T09:55:11.663Z,4.64
2019-03-19T09:57:40.679Z,4.69
2019-03-19T10:00:15.403Z,4.81
2019-03-19T10:02:44.162Z,5.10
2019-03-19T10:05:13.190Z,5.08
2019-03-19T10:07:43.306Z,4.93
2019-03-19T10:10:13.759Z,5.05
2019-03-19T10:12:42.709Z,5.07
2019-03-19T10:15:11.555Z,5.19
2019-03-19T10:17:40.230Z,5.12
2019-03-19T10:20:11.368Z,5.17
2019-03-19T10:22:40.337Z,5.13
2019-03-19T10:25:10.120Z,5.21
2019-03-19T10:27:39.165Z,5.22
2019-03-19T10:30:12.227Z,5.45
2019-03-19T10:32:40.988Z,5.48
2019-03-19T10:35:10.343Z,5.46
2019-03-19T10:37:39.408Z,5.59
2019-03-19T10:40:08.163Z,5.82
2019-03-19T10:42:36.880Z,5.61
2019-03-19T10:45:06.094Z,5.58
2019-03-19T10:47:35.065Z,5.81
2019-03-19T10:50:04.632Z,5.85
2019-03-19T10:52:35.201Z,5.78
2019-03-19T10:55:04.354Z,5.53
2019-03-19T10:57:33.032Z,5.32
2019-03-19T11:00:16.360Z,5.53
2019-03-19T11:02:47.997Z,5.85
2019-03-19T11:05:16.906Z,6.02
2019-03-19T11:07:46.054Z,6.01
2019-03-19T11:10:15.262Z,6.02
2019-03-19T11:12:44.097Z,6.11
2019-03-19T11:15:14.823Z,6.39
2019-03-19T11:17:43.828Z,6.34
2019-03-19T11:20:14.642Z,6.24
2019-03-19T11:22:43.487Z,6.17
2019-03-19T11:25:13.542Z,6.15
2019-03-19T11:27:43.019Z,6.14
2019-03-19T11:30:15.048Z,6.10
2019-03-19T11:32:42.895Z,6.12
2019-03-19T11:35:11.762Z,6.15
2019-03-19T11:37:40.436Z,6.09
2019-03-19T11:40:09.445Z,6.04
2019-03-19T11:42:38.148Z,6.04
2019-03-19T11:45:08.029Z,6.04
2019-03-19T11:47:36.702Z,6.27
2019-03-19T11:50:07.874Z,6.54
2019-03-19T11:52:36.835Z,6.88
2019-03-19T11:55:06.651Z,7.03
2019-03-19T11:57:35.642Z,7.17
2019-03-19T12:00:13.258Z,6.92
2019-03-19T12:02:42.231Z,6.94
2019-03-19T12:05:11.325Z,6.89
2019-03-19T12:07:40.075Z,7.16
2019-03-19T12:10:09.208Z,7.19
2019-03-19T12:12:38.200Z,7.08
2019-03-19T12:15:07.432Z,6.83
2019-03-19T12:17:36.437Z,6.71
2019-03-19T12:20:05.881Z,6.71
2019-03-19T12:22:34.561Z,6.57
2019-03-19T12:25:03.601Z,6.50
2019-03-19T12:27:32.547Z,6.36
2019-03-19T12:30:01.256Z,6.25
2019-03-19T12:32:29.924Z,6.34
2019-03-19T12:35:01.531Z,6.40
2019-03-19T12:37:30.068Z,6.22
2019-03-19T12:39:58.756Z,6.54
2019-03-19T12:42:27.438Z,7.15
2019-03-19T12:44:56.172Z,7.50
2019-03-19T12:47:25.117Z,7.39
2019-03-19T12:49:54.071Z,7.03
2019-03-19T12:52:23.111Z,7.00
2019-03-19T12:54:51.829Z,6.82
2019-03-19T12:57:20.784Z,6.84
2019-03-19T12:59:49.477Z,6.98
2019-03-19T13:02:20.640Z,7.02
2019-03-19T13:04:49.647Z,6.81
2019-03-19T13:07:18.328Z,6.96
2019-03-19T13:09:47.589Z,7.18
2019-03-19T13:12:16.364Z,7.34
2019-03-19T13:14:45.052Z,7.53
2019-03-19T13:17:14.167Z,7.50
2019-03-19T13:19:43.084Z,7.55
2019-03-19T13:22:12.651Z,7.35
2019-03-19T13:24:41.656Z,7.34
2019-03-19T13:27:10.339Z,7.11
2019-03-19T13:29:39.035Z,6.84
2019-03-19T13:32:07.740Z,6.68
2019-03-19T13:34:36.419Z,6.67
2019-03-19T13:37:05.130Z,6.56
2019-03-19T13:39:33.815Z,6.69
2019-03-19T13:42:03.435Z,7.04
2019-03-19T13:44:32.368Z,7.08
2019-03-19T13:47:01.060Z,6.96
2019-03-19T13:49:30.042Z,7.05
2019-03-19T13:51:58.742Z,6.84
2019-03-19T13:54:27.664Z,7.24
2019-03-19T13:56:56.428Z,7.22
2019-03-19T13:59:25.402Z,7.08
2019-03-19T14:01:54.208Z,7.03
2019-03-19T14:04:22.895Z,6.67
2019-03-19T14:06:52.179Z,6.56
2019-03-19T14:09:20.866Z,6.53
2019-03-19T14:11:49.805Z,6.80
2019-03-19T14:14:18.496Z,6.86
2019-03-19T14:16:47.509Z,6.93
2019-03-19T14:19:16.218Z,6.92
2019-03-19T14:21:44.931Z,7.27
2019-03-19T14:24:13.898Z,7.32
2019-03-19T14:26:42.886Z,7.20
2019-03-19T14:29:11.929Z,7.12
2019-03-19T14:31:40.625Z,7.04
2019-03-19T14:34:10.173Z,7.15
2019-03-19T14:36:38.858Z,7.10
2019-03-19T14:39:08.853Z,7.23
2019-03-19T14:41:37.547Z,7.45
2019-03-19T14:44:06.298Z,7.49
2019-03-19T14:46:34.988Z,7.45
2019-03-19T14:49:03.733Z,7.27
2019-03-19T14:51:32.438Z,7.22
2019-03-19T14:54:01.120Z,7.04
2019-03-19T14:56:29.959Z,7.05
2019-03-19T14:58:58.909Z,6.95
2019-03-19T15:01:27.944Z,7.06
2019-03-19T15:03:56.643Z,6.91
2019-03-19T15:06:25.626Z,6.75
2019-03-19T15:08:54.312Z,6.94
2019-03-19T15:11:23.365Z,6.88
2019-03-19T15:13:55.106Z,6.88
2019-03-19T15:16:23.073Z,6.94
2019-03-19T15:18:52.085Z,6.96
2019-03-19T15:21:21.038Z,7.28
2019-03-19T15:23:49.723Z,7.47
2019-03-19T15:26:18.713Z,7.68
2019-03-19T15:28:47.389Z,7.84
2019-03-19T15:31:16.060Z,8.03
2019-03-19T15:33:44.727Z,7.86
2019-03-19T15:36:13.395Z,7.47
2019-03-19T15:38:42.918Z,7.19
2019-03-19T15:41:11.635Z,6.99
2019-03-19T15:43:40.317Z,6.92
2019-03-19T15:46:09.024Z,7.01
2019-03-19T15:48:38.320Z,7.46
2019-03-19T15:51:07.075Z,7.97
2019-03-19T15:53:35.755Z,8.33
2019-03-19T15:56:04.454Z,8.39
2019-03-19T15:58:33.456Z,8.50
2019-03-19T16:01:02.137Z,8.44
2019-03-19T16:03:31.147Z,8.45
2019-03-19T16:06:00.149Z,8.35
2019-03-19T16:08:29.140Z,8.39
2019-03-19T16:10:59.821Z,8.59
2019-03-19T16:13:28.556Z,8.75
2019-03-19T16:15:57.252Z,8.82
2019-03-19T16:18:26.179Z,8.94
2019-03-19T16:20:55.231Z,8.80
2019-03-19T16:23:23.923Z,8.51
2019-03-19T16:25:52.913Z,8.47
2019-03-19T16:28:21.898Z,8.60
2019-03-19T16:30:50.582Z,8.97
2019-03-19T16:33:19.578Z,8.94
2019-03-19T16:36:03.614Z,9.11
2019-03-19T16:38:33.665Z,9.19
2019-03-19T16:41:02.542Z,8.92
2019-03-19T16:43:31.927Z,8.36
2019-03-19T16:46:00.849Z,8.48
2019-03-19T16:48:29.814Z,8.59
2019-03-19T16:50:58.478Z,8.12
2019-03-19T16:53:27.164Z,7.73
2019-03-19T16:55:56.089Z,7.55
2019-03-19T16:58:25.060Z,7.44
2019-03-19T17:00:53.735Z,7.14
2019-03-19T17:03:22.428Z,6.94
2019-03-19T17:05:51.512Z,6.83
2019-03-19T17:08:20.198Z,6.85
2019-03-19T17:10:49.415Z,6.28
2019-03-19T17:13:18.105Z,6.71
2019-03-19T17:15:47.091Z,6.84
2019-03-19T17:18:16.160Z,6.83
2019-03-19T17:20:45.070Z,6.77
2019-03-19T17:23:13.793Z,6.79
2019-03-19T17:25:42.512Z,6.71
2019-03-19T17:28:21.895Z,6.59
2019-03-19T17:30:42.019Z,6.54
2019-03-19T17:33:11.295Z,6.43
2019-03-19T17:35:40.563Z,6.33
2019-03-19T17:38:09.234Z,6.20
2019-03-19T17:40:41.618Z,6.14
2019-03-19T17:43:08.763Z,6.07
2019-03-19T17:45:39.556Z,6.02
2019-03-19T17:48:16.432Z,5.97
2019-03-19T17:50:43.948Z,6.00
2019-03-19T17:53:12.669Z,5.98
2019-03-19T17:55:41.714Z,5.92
2019-03-19T17:58:10.472Z,5.85
2019-03-19T18:00:40.741Z,5.74
2019-03-19T18:03:09.525Z,5.64
2019-03-19T18:05:38.232Z,5.57
2019-03-19T18:08:07.596Z,5.45
2019-03-19T18:10:36.360Z,5.12
2019-03-19T18:13:06.757Z,5.08
2019-03-19T18:15:35.642Z,4.99
2019-03-19T18:18:04.533Z,4.93
2019-03-19T18:20:33.491Z,4.91
2019-03-19T18:23:02.419Z,4.79
2019-03-19T18:25:31.135Z,4.80
2019-03-19T18:28:00.093Z,4.79
2019-03-19T18:30:28.795Z,4.81
2019-03-19T18:32:59.220Z,4.88
2019-03-19T18:35:28.178Z,4.88
2019-03-19T18:37:57.150Z,4.76
2019-03-19T18:40:25.868Z,4.70
2019-03-19T18:42:54.858Z,4.62
2019-03-19T18:45:23.589Z,4.44
2019-03-19T18:47:52.251Z,4.32
2019-03-19T18:50:21.029Z,4.33
2019-03-19T18:52:49.780Z,4.31
2019-03-19T18:55:18.725Z,4.23
2019-03-19T18:57:47.819Z,4.15
2019-03-19T19:00:16.894Z,4.08
2019-03-19T19:02:50.277Z,4.11
2019-03-19T19:05:16.186Z,4.05
2019-03-19T19:07:45.237Z,4.01
2019-03-19T19:10:14.095Z,4.09
2019-03-19T19:12:43.291Z,4.14
2019-03-19T19:15:13.627Z,4.19
2019-03-19T19:17:42.417Z,4.27
2019-03-19T19:20:11.764Z,4.25
2019-03-19T19:22:40.586Z,4.17
2019-03-19T19:25:11.516Z,4.19
2019-03-19T19:27:40.493Z,4.20
2019-03-19T19:30:12.584Z,4.16
2019-03-19T19:32:40.450Z,4.12
2019-03-19T19:35:09.350Z,4.11
2019-03-19T19:37:38.060Z,4.13
2019-03-19T19:40:08.456Z,4.19
2019-03-19T19:42:37.409Z,4.13
2019-03-19T19:45:07.147Z,4.12
2019-03-19T19:47:36.058Z,4.06
2019-03-19T19:50:05.816Z,4.05
2019-03-19T19:52:34.760Z,4.07
2019-03-19T19:55:03.798Z,4.15
2019-03-19T19:57:32.575Z,4.21
2019-03-19T20:00:02.082Z,4.21
2019-03-19T20:02:31.141Z,4.14
2019-03-19T20:05:03.167Z,4.11
2019-03-19T20:07:30.239Z,4.03
2019-03-19T20:09:59.450Z,3.96
2019-03-19T20:12:28.239Z,4.04
2019-03-19T20:14:57.240Z,4.12
2019-03-19T20:17:27.140Z,4.14
2019-03-19T20:19:55.946Z,4.14
2019-03-19T20:22:24.957Z,4.05
2019-03-19T20:24:53.672Z,4.04
2019-03-19T20:27:22.364Z,3.98
2019-03-19T20:29:51.080Z,3.85
2019-03-19T20:32:19.850Z,3.77
2019-03-19T20:34:48.801Z,3.87
2019-03-19T20:37:17.739Z,3.91
2019-03-19T20:39:46.449Z,3.93
2019-03-19T20:42:15.409Z,3.90
2019-03-19T20:44:44.128Z,3.73
2019-03-19T20:47:12.803Z,3.55
2019-03-19T20:49:47.914Z,3.48
2019-03-19T20:52:14.453Z,3.37
2019-03-19T20:54:43.430Z,3.33
2019-03-19T20:57:12.127Z,3.50
2019-03-19T20:59:40.824Z,3.52
2019-03-19T21:02:09.518Z,3.52
2019-03-19T21:04:38.469Z,3.52
2019-03-19T21:07:07.426Z,3.57
2019-03-19T21:09:36.108Z,3.67
2019-03-19T21:12:05.124Z,3.78
2019-03-19T21:14:33.800Z,3.84
2019-03-19T21:17:02.483Z,3.98
2019-03-19T21:19:31.477Z,4.04
2019-03-19T21:22:00.723Z,4.01
2019-03-19T21:24:29.780Z,3.99
2019-03-19T21:26:58.750Z,4.02
2019-03-19T21:29:27.801Z,4.10
2019-03-19T21:31:56.793Z,4.07
2019-03-19T21:34:27.371Z,4.08
2019-03-19T21:36:56.462Z,3.99
2019-03-19T21:39:25.648Z,3.86
2019-03-19T21:41:54.851Z,3.69
2019-03-19T21:44:35.691Z,3.52
2019-03-19T21:47:05.797Z,3.34
2019-03-19T21:49:35.101Z,3.26
2019-03-19T21:52:04.308Z,3.21
2019-03-19T21:54:33.065Z,3.16
2019-03-19T21:57:01.916Z,3.05
2019-03-19T21:59:30.721Z,3.04
2019-03-19T22:02:00.020Z,2.94
2019-03-19T22:04:31.199Z,2.92
2019-03-19T22:07:00.032Z,2.91
2019-03-19T22:09:29.017Z,2.85
2019-03-19T22:11:59.534Z,2.79
2019-03-19T22:14:28.333Z,2.76
2019-03-19T22:16:57.069Z,2.71
2019-03-19T22:19:25.754Z,2.60
2019-03-19T22:21:54.538Z,2.56
2019-03-19T22:24:23.583Z,2.51
2019-03-19T22:26:52.665Z,2.46
2019-03-19T22:29:21.684Z,2.41
2019-03-19T22:31:50.784Z,2.42
2019-03-19T22:34:19.863Z,2.41
2019-03-19T22:36:48.576Z,2.41
2019-03-19T22:39:18.140Z,2.40
2019-03-19T22:41:46.909Z,2.40
2019-03-19T22:44:16.043Z,2.37
2019-03-19T22:46:45.116Z,2.37
2019-03-19T22:49:13.882Z,2.38
2019-03-19T22:51:42.637Z,2.38
2019-03-19T22:54:11.461Z,2.39
2019-03-19T22:56:40.581Z,2.35
2019-03-19T22:59:09.365Z,2.33
2019-03-19T23:01:38.294Z,2.35
2019-03-19T23:04:09.432Z,2.24
2019-03-19T23:06:39.244Z,2.26
2019-03-19T23:09:08.415Z,2.26
2019-03-19T23:11:37.201Z,2.25
2019-03-19T23:14:06.307Z,2.28
2019-03-19T23:16:35.015Z,2.26
2019-03-19T23:19:03.752Z,2.20
2019-03-19T23:21:32.518Z,2.15
2019-03-19T23:24:01.207Z,2.22
2019-03-19T23:26:30.337Z,2.21
2019-03-19T23:28:59.029Z,2.11
2019-03-19T23:31:28.092Z,2.16
2019-03-19T23:33:57.102Z,2.16
2019-03-19T23:36:26.772Z,2.22
2019-03-19T23:38:55.469Z,2.24
2019-03-19T23:41:25.212Z,2.25
2019-03-19T23:43:54.156Z,2.25
2019-03-19T23:46:23.197Z,2.24
2019-03-19T23:48:51.889Z,2.25
2019-03-19T23:51:21.180Z,2.30
2019-03-19T23:53:50.173Z,2.32
2019-03-19T23:56:19.577Z,2.34
2019-03-19T23:58:48.430Z,2.32
